Airport View

Enter AWOS ICAO identifier for current METAR.

ex. KFNL

KKY8 080615Z AUTO 00000KT 10SM CLR 16/16 A3016 RMK A01

8 Aug 2020 06:17

Frequency: 119.775

Phone: 270-295-3565

Other Area AWOS: KHNB - KOWB - KEVV - KFRH

TAF KOWB 080520Z 0806/0906 VRB02KT P6SM SKC FM081500 17004KT P6SM SKC FM090000 VRB02KT P6SM SCT200